createdAt,value
2022-09-15T00:01:33.972Z,7.47
2022-09-15T00:04:36.562Z,8.15
2022-09-15T00:07:38.946Z,8.13
2022-09-15T00:10:49.977Z,7.72
2022-09-15T00:13:53.468Z,8.50
2022-09-15T00:16:55.970Z,8.48
2022-09-15T00:19:58.522Z,7.85
2022-09-15T00:23:00.731Z,8.00
2022-09-15T00:26:07.415Z,8.00
2022-09-15T00:29:10.690Z,8.60
2022-09-15T00:32:12.896Z,8.73
2022-09-15T00:35:15.095Z,8.68
2022-09-15T00:38:18.730Z,9.43
2022-09-15T00:41:22.862Z,9.18
2022-09-15T00:44:25.192Z,9.33
2022-09-15T00:47:31.193Z,8.98
2022-09-15T00:50:34.271Z,9.38
2022-09-15T00:53:37.248Z,9.63
2022-09-15T00:56:40.921Z,9.40
2022-09-15T00:59:43.482Z,8.70
2022-09-15T01:02:47.301Z,8.05
2022-09-15T01:05:54.551Z,7.97
2022-09-15T01:09:03.490Z,7.95
2022-09-15T01:12:06.287Z,7.18
2022-09-15T01:15:08.742Z,6.60
2022-09-15T01:21:58.900Z,6.80
2022-09-15T01:25:45.309Z,5.90
2022-09-15T01:29:02.853Z,5.82
2022-09-15T01:32:42.558Z,5.80
2022-09-15T01:35:53.810Z,5.65
2022-09-15T01:39:07.503Z,5.32
2022-09-15T01:42:13.164Z,5.68
2022-09-15T01:45:22.281Z,5.10
2022-09-15T01:48:25.758Z,4.70
2022-09-15T01:51:28.567Z,5.15
2022-09-15T01:54:34.101Z,5.38
2022-09-15T01:57:36.375Z,5.10
2022-09-15T02:00:43.015Z,5.30
2022-09-15T02:04:05.205Z,4.63
2022-09-15T02:07:35.554Z,4.70
2022-09-15T02:10:53.606Z,4.47
2022-09-15T02:13:58.652Z,4.85
2022-09-15T02:17:02.108Z,4.78
2022-09-15T02:20:16.194Z,4.47
2022-09-15T02:23:26.291Z,4.45
2022-09-15T02:26:29.457Z,5.03
2022-09-15T02:29:33.665Z,4.93
2022-09-15T02:32:37.545Z,4.63
2022-09-15T02:35:40.413Z,4.77
2022-09-15T02:38:47.517Z,4.68
2022-09-15T02:41:49.977Z,4.70
2022-09-15T02:44:52.613Z,4.60
2022-09-15T02:47:54.792Z,4.70
2022-09-15T02:50:57.133Z,4.63
2022-09-15T02:53:59.509Z,5.00
2022-09-15T02:57:01.866Z,4.78
2022-09-15T03:00:14.832Z,5.00
2022-09-15T03:03:19.025Z,4.45
2022-09-15T03:06:21.587Z,4.93
2022-09-15T03:09:23.738Z,4.65
2022-09-15T03:12:26.235Z,4.35
2022-09-15T03:15:28.418Z,4.30
2022-09-15T03:18:30.731Z,3.75
2022-09-15T03:21:33.019Z,3.80
2022-09-15T03:24:35.466Z,3.50
2022-09-15T03:27:38.249Z,3.65
2022-09-15T03:30:42.467Z,3.10
2022-09-15T03:33:44.805Z,3.05
2022-09-15T03:36:46.966Z,2.67
2022-09-15T03:39:49.215Z,2.30
2022-09-15T03:42:51.457Z,2.55
2022-09-15T03:45:55.050Z,2.40
2022-09-15T03:48:57.669Z,2.30
2022-09-15T03:51:59.909Z,2.70
2022-09-15T03:55:02.099Z,2.30
2022-09-15T03:58:04.327Z,2.40
2022-09-15T04:01:07.210Z,2.25
2022-09-15T04:04:10.996Z,2.40
2022-09-15T04:07:13.991Z,2.57
2022-09-15T04:10:17.591Z,2.70
2022-09-15T04:13:20.679Z,2.50
2022-09-15T04:16:24.681Z,2.10
2022-09-15T04:19:26.973Z,2.00
2022-09-15T04:22:32.490Z,1.97
2022-09-15T04:25:34.722Z,1.90
2022-09-15T04:28:37.979Z,1.75
2022-09-15T04:31:40.395Z,2.00
2022-09-15T04:34:42.640Z,1.88
2022-09-15T04:37:44.894Z,1.83
2022-09-15T04:40:47.083Z,1.70
2022-09-15T04:43:49.578Z,1.73
2022-09-15T04:46:51.835Z,1.85
2022-09-15T04:49:54.085Z,2.17
2022-09-15T04:52:56.325Z,1.80
2022-09-15T04:56:08.144Z,2.00
2022-09-15T04:59:20.144Z,2.00
2022-09-15T05:02:22.366Z,1.70
2022-09-15T05:05:25.451Z,2.05
2022-09-15T05:08:27.588Z,2.10
2022-09-15T05:11:31.072Z,1.80
2022-09-15T05:14:33.197Z,1.75
2022-09-15T05:17:35.569Z,1.90
2022-09-15T05:20:38.670Z,1.65
2022-09-15T05:23:41.603Z,1.40
2022-09-15T05:26:43.827Z,1.38
2022-09-15T05:29:46.154Z,1.50
2022-09-15T05:32:48.388Z,1.20
2022-09-15T05:35:58.883Z,1.30
2022-09-15T05:39:01.914Z,1.20
2022-09-15T05:42:04.272Z,1.35
2022-09-15T05:45:07.156Z,1.30
2022-09-15T05:48:13.326Z,1.50
2022-09-15T05:51:15.557Z,1.40
2022-09-15T05:54:17.727Z,1.80
2022-09-15T05:57:20.074Z,1.50
2022-09-15T06:00:22.457Z,1.50
2022-09-15T06:03:30.017Z,1.58
2022-09-15T06:06:33.361Z,1.70
2022-09-15T06:09:35.499Z,1.50
2022-09-15T06:12:37.655Z,1.80
2022-09-15T06:15:39.787Z,2.10
2022-09-15T06:18:42.449Z,1.60
2022-09-15T06:21:44.618Z,1.95
2022-09-15T06:24:46.858Z,1.77
2022-09-15T06:27:50.137Z,1.73
2022-09-15T06:30:52.324Z,1.90
2022-09-15T06:33:56.141Z,1.98
2022-09-15T06:36:59.733Z,1.80
2022-09-15T06:40:02.467Z,1.83
2022-09-15T06:43:04.668Z,1.88
2022-09-15T06:46:09.416Z,1.73
2022-09-15T06:49:11.711Z,1.70
2022-09-15T06:52:13.908Z,1.85
2022-09-15T06:55:16.178Z,1.70
2022-09-15T06:58:18.457Z,1.85
2022-09-15T07:01:25.425Z,1.80
2022-09-15T07:04:27.626Z,1.60
2022-09-15T07:07:29.872Z,2.10
2022-09-15T07:10:32.103Z,1.80
2022-09-15T07:13:34.290Z,2.00
2022-09-15T07:16:36.610Z,1.83
2022-09-15T07:19:40.225Z,1.70
2022-09-15T07:22:42.678Z,1.63
2022-09-15T07:25:45.312Z,2.07
2022-09-15T07:28:52.435Z,1.80
2022-09-15T07:31:54.869Z,1.70
2022-09-15T07:34:58.527Z,2.28
2022-09-15T07:38:00.989Z,1.83
2022-09-15T07:41:07.422Z,2.20
2022-09-15T07:44:11.687Z,1.70
2022-09-15T07:47:13.990Z,2.00
2022-09-15T07:50:16.617Z,1.77
2022-09-15T07:53:18.781Z,2.00
2022-09-15T07:56:21.701Z,1.70
2022-09-15T07:59:24.083Z,1.75
2022-09-15T08:02:26.801Z,1.90
2022-09-15T08:05:29.058Z,1.52
2022-09-15T08:08:31.228Z,1.75
2022-09-15T08:11:34.303Z,1.70
2022-09-15T08:14:38.320Z,1.48
2022-09-15T08:17:40.811Z,1.60
2022-09-15T08:20:43.290Z,1.63
2022-09-15T08:23:45.930Z,1.60
2022-09-15T08:26:48.712Z,1.40
2022-09-15T08:29:51.108Z,1.98
2022-09-15T08:32:53.334Z,1.35
2022-09-15T08:36:01.137Z,1.48
2022-09-15T08:39:04.277Z,1.35
2022-09-15T08:42:06.598Z,1.30
2022-09-15T08:45:19.182Z,1.20
2022-09-15T08:48:26.420Z,1.30
2022-09-15T08:51:34.345Z,1.20
2022-09-15T08:54:36.909Z,1.20
2022-09-15T08:57:39.309Z,1.03
2022-09-15T09:00:42.600Z,1.35
2022-09-15T09:04:08.525Z,1.15
2022-09-15T09:07:35.778Z,1.13
2022-09-15T09:11:12.861Z,1.17
2022-09-15T09:14:36.918Z,1.10
2022-09-15T09:18:13.074Z,1.27
2022-09-15T09:21:18.722Z,1.00
2022-09-15T09:24:36.922Z,1.13
2022-09-15T09:27:40.807Z,0.98
2022-09-15T09:30:43.083Z,0.70
2022-09-15T09:33:53.667Z,0.70
2022-09-15T09:37:01.271Z,0.90
2022-09-15T09:40:03.804Z,0.70
2022-09-15T09:43:06.085Z,0.80
2022-09-15T09:46:16.587Z,0.70
2022-09-15T09:49:23.165Z,0.70
2022-09-15T09:52:35.334Z,0.70
2022-09-15T09:55:38.466Z,0.70
2022-09-15T09:58:40.735Z,0.80
2022-09-15T10:02:11.941Z,0.80
2022-09-15T10:05:19.280Z,0.70
2022-09-15T10:08:21.526Z,0.73
2022-09-15T10:11:48.267Z,0.80
2022-09-15T10:14:53.030Z,0.90
2022-09-15T10:17:56.559Z,0.70
2022-09-15T10:21:00.064Z,0.93
2022-09-15T10:24:25.277Z,0.80
2022-09-15T10:27:35.625Z,0.80
2022-09-15T10:30:39.018Z,0.70
2022-09-15T10:33:45.489Z,1.60
2022-09-15T10:36:48.022Z,1.10
2022-09-15T10:39:55.147Z,1.20
2022-09-15T10:43:34.206Z,0.73
2022-09-15T10:47:07.364Z,0.80
2022-09-15T10:50:17.608Z,0.80
2022-09-15T10:53:22.822Z,0.80
2022-09-15T10:56:37.587Z,1.00
2022-09-15T11:00:09.488Z,0.80
2022-09-15T11:03:27.524Z,1.00
2022-09-15T11:06:50.457Z,0.87
2022-09-15T11:10:27.154Z,0.80
2022-09-15T11:13:59.326Z,0.85
2022-09-15T11:17:05.309Z,1.27
2022-09-15T11:20:15.061Z,0.98
2022-09-15T11:23:22.141Z,1.07
2022-09-15T11:26:40.805Z,1.00
2022-09-15T11:30:03.758Z,1.02
2022-09-15T11:33:09.718Z,0.80
2022-09-15T11:36:37.597Z,1.20
2022-09-15T11:39:47.815Z,1.13
2022-09-15T11:43:00.475Z,0.73
2022-09-15T11:46:09.959Z,1.17
2022-09-15T11:49:20.589Z,1.00
2022-09-15T11:52:50.819Z,1.00
2022-09-15T11:56:14.290Z,1.10
2022-09-15T11:59:39.401Z,1.00
2022-09-15T12:02:54.118Z,1.20
2022-09-15T12:06:03.404Z,0.90
2022-09-15T12:09:07.172Z,1.10
2022-09-15T12:12:15.553Z,1.30
2022-09-15T12:15:19.252Z,1.20
2022-09-15T12:18:39.329Z,1.30
2022-09-15T12:21:53.255Z,1.00
2022-09-15T12:25:06.605Z,1.20
2022-09-15T12:28:24.250Z,1.20
2022-09-15T12:31:35.378Z,2.50
2022-09-15T12:34:38.576Z,2.47
2022-09-15T12:37:45.372Z,1.90
2022-09-15T12:40:56.911Z,2.00
2022-09-15T12:44:04.266Z,1.90
2022-09-15T12:47:15.286Z,1.90
2022-09-15T12:50:17.463Z,1.90
2022-09-15T12:53:31.450Z,1.90
2022-09-15T12:56:34.866Z,1.95
2022-09-15T12:59:37.103Z,3.70
2022-09-15T13:02:45.049Z,2.45
2022-09-15T13:05:47.414Z,1.48
2022-09-15T13:08:51.686Z,1.70
2022-09-15T13:11:54.750Z,1.10
2022-09-15T13:14:57.163Z,1.07
2022-09-15T13:18:04.218Z,1.23
2022-09-15T13:21:13.299Z,1.25
2022-09-15T13:24:24.537Z,0.90
2022-09-15T13:27:36.476Z,1.00
2022-09-15T13:31:00.916Z,0.70
2022-09-15T13:41:21.137Z,0.88
2022-09-15T13:45:01.199Z,0.70
2022-09-15T13:48:43.406Z,0.67
2022-09-15T13:51:53.471Z,0.95
2022-09-15T13:55:14.886Z,1.30
2022-09-15T14:01:44.911Z,1.23
2022-09-15T14:04:52.221Z,0.90
2022-09-15T14:08:01.450Z,1.02
2022-09-15T14:11:10.489Z,2.10
2022-09-15T14:14:28.944Z,2.50
2022-09-15T14:17:33.062Z,2.70
2022-09-15T14:20:36.056Z,2.30
2022-09-15T14:23:45.909Z,2.30
2022-09-15T14:26:49.411Z,2.60
2022-09-15T14:29:58.241Z,2.30
2022-09-15T14:33:02.659Z,2.78
2022-09-15T14:36:22.951Z,2.63
2022-09-15T14:39:26.051Z,2.63
2022-09-15T14:42:32.903Z,2.58
2022-09-15T14:49:14.551Z,3.35
2022-09-15T14:52:27.485Z,3.30
2022-09-15T14:55:41.883Z,3.10
2022-09-15T14:58:52.048Z,3.50
2022-09-15T15:02:04.802Z,3.45
2022-09-15T15:05:18.171Z,3.03
2022-09-15T15:08:28.175Z,3.17
2022-09-15T15:11:34.019Z,3.38
2022-09-15T15:14:36.285Z,3.80
2022-09-15T15:17:45.251Z,3.65
2022-09-15T15:20:49.739Z,3.63
2022-09-15T15:23:51.977Z,3.20
2022-09-15T15:26:54.139Z,3.30
2022-09-15T15:29:56.366Z,3.42
2022-09-15T15:33:00.776Z,3.92
2022-09-15T15:36:12.108Z,3.83
2022-09-15T15:39:27.180Z,4.10
2022-09-15T15:42:29.649Z,3.80
2022-09-15T15:45:34.508Z,4.18
2022-09-15T15:48:38.455Z,4.10
2022-09-15T15:51:42.347Z,3.97
2022-09-15T15:54:45.323Z,3.50
2022-09-15T15:57:50.370Z,3.65
2022-09-15T16:00:56.651Z,3.72
2022-09-15T16:03:58.943Z,3.70
2022-09-15T16:07:01.083Z,4.22
2022-09-15T16:10:03.839Z,3.90
2022-09-15T16:13:06.405Z,3.67
2022-09-15T16:16:16.160Z,4.18
2022-09-15T16:19:18.656Z,3.90
2022-09-15T16:22:21.094Z,4.20
2022-09-15T16:25:36.728Z,3.83
2022-09-15T16:28:39.209Z,4.38
2022-09-15T16:31:43.048Z,4.50
2022-09-15T16:34:47.220Z,3.83
2022-09-15T16:37:49.617Z,4.38
2022-09-15T16:40:52.349Z,4.43
2022-09-15T16:44:00.268Z,4.03
2022-09-15T16:47:02.637Z,4.15
2022-09-15T16:50:05.382Z,3.70
2022-09-15T16:53:18.529Z,4.35
2022-09-15T16:56:20.727Z,3.90
2022-09-15T16:59:23.959Z,3.55
2022-09-15T17:02:31.695Z,3.90
2022-09-15T17:05:38.466Z,4.18
2022-09-15T17:08:40.984Z,4.30
2022-09-15T17:11:43.531Z,4.70
2022-09-15T17:14:45.735Z,4.95
2022-09-15T17:17:52.928Z,4.55
2022-09-15T17:20:55.788Z,4.28
2022-09-15T17:23:57.948Z,4.88
2022-09-15T17:27:00.508Z,5.03
2022-09-15T17:30:02.799Z,4.10
2022-09-15T17:33:07.088Z,4.88
2022-09-15T17:36:09.420Z,4.50
2022-09-15T17:39:11.553Z,4.53
2022-09-15T17:42:13.841Z,4.20
2022-09-15T17:45:26.111Z,3.95
2022-09-15T17:48:52.761Z,4.30
2022-09-15T17:52:01.330Z,4.20
2022-09-15T17:55:14.675Z,4.60
2022-09-15T17:58:17.700Z,4.50
2022-09-15T18:01:20.161Z,4.18
2022-09-15T18:04:22.619Z,4.47
2022-09-15T18:07:25.167Z,4.57
2022-09-15T18:10:28.545Z,3.70
2022-09-15T18:13:31.557Z,4.27
2022-09-15T18:16:34.136Z,4.28
2022-09-15T18:19:36.731Z,4.30
2022-09-15T18:22:40.332Z,3.88
2022-09-15T18:25:43.265Z,4.13
2022-09-15T18:28:45.958Z,3.93
2022-09-15T18:31:48.519Z,3.63
2022-09-15T18:34:51.257Z,3.65
2022-09-15T18:37:58.524Z,3.58
2022-09-15T18:41:01.759Z,4.57
2022-09-15T18:44:04.362Z,4.10
2022-09-15T18:47:06.908Z,3.92
2022-09-15T18:50:11.942Z,4.03
2022-09-15T18:53:14.454Z,4.10
2022-09-15T18:56:16.909Z,3.95
2022-09-15T18:59:19.664Z,4.03
2022-09-15T19:02:22.356Z,4.10
2022-09-15T19:05:25.592Z,4.25
2022-09-15T19:08:28.029Z,4.40
2022-09-15T19:11:30.785Z,4.00
2022-09-15T19:14:33.361Z,4.40
2022-09-15T19:17:37.455Z,4.28
2022-09-15T19:20:41.160Z,4.40
2022-09-15T19:23:44.109Z,4.05
2022-09-15T19:26:47.586Z,4.28
2022-09-15T19:29:50.158Z,3.70
2022-09-15T19:32:53.114Z,3.80
2022-09-15T19:36:17.177Z,3.75
2022-09-15T19:39:20.135Z,3.80
2022-09-15T19:42:22.442Z,4.03
2022-09-15T19:45:24.769Z,3.80
2022-09-15T19:48:27.448Z,3.78
2022-09-15T19:51:31.467Z,3.72
2022-09-15T19:54:34.865Z,4.05
2022-09-15T19:57:41.770Z,4.15
2022-09-15T20:00:44.691Z,3.80
2022-09-15T20:07:06.955Z,3.95
2022-09-15T20:10:09.133Z,3.67
2022-09-15T20:13:11.384Z,4.40
2022-09-15T20:16:18.614Z,3.70
2022-09-15T20:19:20.752Z,3.70
2022-09-15T20:22:26.329Z,4.18
2022-09-15T20:25:28.756Z,3.72
2022-09-15T20:28:31.047Z,4.30
2022-09-15T20:31:34.139Z,4.60
2022-09-15T20:34:36.264Z,5.32
2022-09-15T20:37:38.888Z,5.20
2022-09-15T20:40:41.045Z,5.25
2022-09-15T20:43:43.407Z,5.45
2022-09-15T20:46:45.595Z,5.67
2022-09-15T20:49:47.805Z,5.68
2022-09-15T20:52:50.035Z,5.65
2022-09-15T20:55:52.215Z,5.30
2022-09-15T20:58:58.678Z,4.90
2022-09-15T21:02:00.878Z,5.50
2022-09-15T21:05:03.293Z,5.55
2022-09-15T21:08:05.561Z,5.78
2022-09-15T21:11:15.238Z,5.65
2022-09-15T21:14:17.522Z,5.68
2022-09-15T21:17:20.351Z,5.70
2022-09-15T21:20:23.133Z,5.70
2022-09-15T21:23:26.844Z,5.55
2022-09-15T21:27:00.464Z,5.38
2022-09-15T21:30:03.749Z,5.95
2022-09-15T21:33:06.646Z,6.00
2022-09-15T21:36:14.711Z,5.93
2022-09-15T21:39:16.896Z,6.30
2022-09-15T21:42:19.103Z,6.10
2022-09-15T21:45:22.144Z,6.10
2022-09-15T21:48:25.322Z,6.00
2022-09-15T21:51:28.865Z,5.88
2022-09-15T21:54:31.558Z,5.78
2022-09-15T21:57:33.908Z,5.78
2022-09-15T22:00:36.806Z,5.40
2022-09-15T22:03:42.221Z,5.17
2022-09-15T22:06:45.079Z,5.65
2022-09-15T22:09:47.503Z,6.38
2022-09-15T22:12:52.234Z,6.45
2022-09-15T22:16:04.105Z,6.45
2022-09-15T22:19:07.239Z,6.10
2022-09-15T22:22:09.545Z,6.32
2022-09-15T22:25:12.077Z,6.65
2022-09-15T22:28:14.248Z,6.07
2022-09-15T22:31:17.775Z,5.55
2022-09-15T22:34:19.988Z,5.33
2022-09-15T22:37:27.006Z,5.85
2022-09-15T22:40:29.475Z,6.30
2022-09-15T22:43:32.104Z,5.68
2022-09-15T22:46:35.002Z,5.50
2022-09-15T22:49:37.162Z,5.87
2022-09-15T22:52:39.347Z,5.70
2022-09-15T22:55:41.697Z,5.18
2022-09-15T22:58:44.229Z,5.05
2022-09-15T23:01:46.942Z,5.68
2022-09-15T23:04:49.152Z,5.03
2022-09-15T23:07:51.286Z,5.30
2022-09-15T23:10:53.464Z,5.22
2022-09-15T23:13:56.404Z,5.25
2022-09-15T23:16:58.589Z,4.80
2022-09-15T23:20:01.251Z,4.83
2022-09-15T23:23:03.415Z,4.97
2022-09-15T23:26:07.084Z,5.13
2022-09-15T23:29:10.105Z,5.05
2022-09-15T23:32:12.970Z,5.10
2022-09-15T23:35:15.462Z,5.40
2022-09-15T23:38:18.686Z,6.00
2022-09-15T23:41:20.918Z,5.55
2022-09-15T23:44:23.592Z,5.50
2022-09-15T23:47:25.767Z,5.40
2022-09-15T23:50:29.116Z,4.90
2022-09-15T23:53:31.267Z,3.92
2022-09-15T23:56:33.871Z,3.78
2022-09-15T23:59:36.073Z,3.70
